sensor_id;sensor_type;location;lat;lon;timestamp;pressure;altitude;pressure_sealevel;temperature;humidity
38616;BME280;24370;51.986;4.666;2023-05-19T00:00:55;102831.50;;;19.30;40.64
38616;BME280;24370;51.986;4.666;2023-05-19T00:03:21;102830.16;;;19.62;40.63
38616;BME280;24370;51.986;4.666;2023-05-19T00:05:47;102826.84;;;19.47;40.59
38616;BME280;24370;51.986;4.666;2023-05-19T00:08:15;102829.84;;;19.79;40.16
38616;BME280;24370;51.986;4.666;2023-05-19T00:10:41;102830.16;;;18.28;42.57
38616;BME280;24370;51.986;4.666;2023-05-19T00:13:07;102822.41;;;19.49;40.95
38616;BME280;24370;51.986;4.666;2023-05-19T00:15:33;102834.03;;;18.75;41.89
38616;BME280;24370;51.986;4.666;2023-05-19T00:17:58;102827.94;;;18.67;42.03
38616;BME280;24370;51.986;4.666;2023-05-19T00:20:24;102834.00;;;18.74;41.78
38616;BME280;24370;51.986;4.666;2023-05-19T00:22:49;102819.38;;;18.46;42.43
38616;BME280;24370;51.986;4.666;2023-05-19T00:25:15;102826.38;;;18.47;43.04
38616;BME280;24370;51.986;4.666;2023-05-19T00:27:40;102822.28;;;18.96;41.59
38616;BME280;24370;51.986;4.666;2023-05-19T00:30:06;102828.88;;;18.61;42.37
38616;BME280;24370;51.986;4.666;2023-05-19T00:32:32;102832.03;;;18.96;42.03
38616;BME280;24370;51.986;4.666;2023-05-19T00:34:58;102838.50;;;18.70;42.13
38616;BME280;24370;51.986;4.666;2023-05-19T00:37:23;102833.63;;;19.06;41.79
38616;BME280;24370;51.986;4.666;2023-05-19T00:39:49;102837.59;;;18.70;42.51
38616;BME280;24370;51.986;4.666;2023-05-19T00:42:15;102828.09;;;19.22;41.04
38616;BME280;24370;51.986;4.666;2023-05-19T00:44:40;102832.28;;;19.38;40.93
38616;BME280;24370;51.986;4.666;2023-05-19T00:47:07;102834.88;;;18.77;41.87
38616;BME280;24370;51.986;4.666;2023-05-19T00:49:32;102829.69;;;17.79;43.65
38616;BME280;24370;51.986;4.666;2023-05-19T00:52:00;102836.28;;;18.33;42.81
38616;BME280;24370;51.986;4.666;2023-05-19T00:54:27;102836.16;;;19.15;41.38
38616;BME280;24370;51.986;4.666;2023-05-19T00:56:53;102824.16;;;18.87;41.44
38616;BME280;24370;51.986;4.666;2023-05-19T00:59:19;102827.94;;;18.67;42.35
38616;BME280;24370;51.986;4.666;2023-05-19T01:01:45;102825.66;;;18.36;42.69
38616;BME280;24370;51.986;4.666;2023-05-19T01:04:15;102826.22;;;19.30;41.15
38616;BME280;24370;51.986;4.666;2023-05-19T01:06:41;102824.44;;;17.78;43.50
38616;BME280;24370;51.986;4.666;2023-05-19T01:09:06;102824.09;;;18.17;42.97
38616;BME280;24370;51.986;4.666;2023-05-19T01:11:33;102821.38;;;18.23;43.28
38616;BME280;24370;51.986;4.666;2023-05-19T01:13:58;102820.81;;;17.87;44.02
38616;BME280;24370;51.986;4.666;2023-05-19T01:16:28;102814.34;;;18.22;43.07
38616;BME280;24370;51.986;4.666;2023-05-19T01:19:17;102819.09;;;17.83;44.35
38616;BME280;24370;51.986;4.666;2023-05-19T01:22:00;102820.50;;;18.97;41.63
38616;BME280;24370;51.986;4.666;2023-05-19T01:24:44;102820.56;;;18.14;42.98
38616;BME280;24370;51.986;4.666;2023-05-19T01:30:16;102815.00;;;19.12;41.49
38616;BME280;24370;51.986;4.666;2023-05-19T01:32:47;102806.13;;;18.45;42.35
38616;BME280;24370;51.986;4.666;2023-05-19T01:35:15;102802.13;;;18.08;43.10
38616;BME280;24370;51.986;4.666;2023-05-19T01:37:41;102802.41;;;17.74;43.94
38616;BME280;24370;51.986;4.666;2023-05-19T01:40:07;102801.69;;;17.54;44.84
38616;BME280;24370;51.986;4.666;2023-05-19T01:42:33;102807.91;;;17.50;44.55
38616;BME280;24370;51.986;4.666;2023-05-19T01:45:03;102803.09;;;18.01;43.55
38616;BME280;24370;51.986;4.666;2023-05-19T01:47:33;102799.59;;;17.96;43.84
38616;BME280;24370;51.986;4.666;2023-05-19T01:49:59;102799.84;;;17.63;44.64
38616;BME280;24370;51.986;4.666;2023-05-19T01:52:24;102797.97;;;17.78;44.28
38616;BME280;24370;51.986;4.666;2023-05-19T01:54:50;102801.59;;;17.66;45.12
38616;BME280;24370;51.986;4.666;2023-05-19T02:06:21;102786.25;;;18.08;43.95
38616;BME280;24370;51.986;4.666;2023-05-19T02:09:12;102790.75;;;18.00;43.82
38616;BME280;24370;51.986;4.666;2023-05-19T02:11:58;102796.63;;;18.27;43.45
38616;BME280;24370;51.986;4.666;2023-05-19T02:14:40;102796.41;;;18.45;43.30
38616;BME280;24370;51.986;4.666;2023-05-19T02:17:06;102790.16;;;17.66;44.81
38616;BME280;24370;51.986;4.666;2023-05-19T02:19:36;102786.63;;;17.65;45.27
38616;BME280;24370;51.986;4.666;2023-05-19T02:22:02;102777.59;;;17.88;44.03
38616;BME280;24370;51.986;4.666;2023-05-19T02:24:27;102781.38;;;17.62;44.88
38616;BME280;24370;51.986;4.666;2023-05-19T02:26:53;102782.28;;;18.46;43.36
38616;BME280;24370;51.986;4.666;2023-05-19T02:29:19;102780.69;;;18.33;42.81
38616;BME280;24370;51.986;4.666;2023-05-19T02:31:45;102780.59;;;18.42;43.29
38616;BME280;24370;51.986;4.666;2023-05-19T02:34:11;102772.69;;;17.44;45.25
38616;BME280;24370;51.986;4.666;2023-05-19T02:36:40;102783.09;;;17.66;44.53
38616;BME280;24370;51.986;4.666;2023-05-19T02:39:08;102772.44;;;17.75;44.85
38616;BME280;24370;51.986;4.666;2023-05-19T02:41:33;102782.84;;;17.91;44.00
38616;BME280;24370;51.986;4.666;2023-05-19T02:43:59;102775.84;;;17.93;43.80
38616;BME280;24370;51.986;4.666;2023-05-19T02:46:24;102770.47;;;17.99;44.12
38616;BME280;24370;51.986;4.666;2023-05-19T02:48:50;102772.38;;;17.81;43.87
38616;BME280;24370;51.986;4.666;2023-05-19T02:51:16;102772.66;;;17.51;45.18
38616;BME280;24370;51.986;4.666;2023-05-19T02:53:41;102766.25;;;17.75;44.87
38616;BME280;24370;51.986;4.666;2023-05-19T02:56:07;102766.59;;;17.36;46.11
38616;BME280;24370;51.986;4.666;2023-05-19T02:58:32;102763.38;;;18.03;44.19
38616;BME280;24370;51.986;4.666;2023-05-19T03:00:57;102759.44;;;17.46;46.01
38616;BME280;24370;51.986;4.666;2023-05-19T03:03:23;102765.16;;;16.90;46.43
38616;BME280;24370;51.986;4.666;2023-05-19T03:05:48;102769.34;;;17.21;46.43
38616;BME280;24370;51.986;4.666;2023-05-19T03:08:14;102764.44;;;17.81;44.93
38616;BME280;24370;51.986;4.666;2023-05-19T03:10:39;102760.38;;;17.43;45.60
38616;BME280;24370;51.986;4.666;2023-05-19T03:13:04;102752.59;;;18.20;44.22
38616;BME280;24370;51.986;4.666;2023-05-19T03:15:30;102760.78;;;16.82;46.33
38616;BME280;24370;51.986;4.666;2023-05-19T03:17:56;102760.06;;;17.77;45.39
38616;BME280;24370;51.986;4.666;2023-05-19T03:20:22;102752.91;;;16.71;46.93
38616;BME280;24370;51.986;4.666;2023-05-19T03:22:48;102753.16;;;17.61;45.50
38616;BME280;24370;51.986;4.666;2023-05-19T03:25:14;102752.41;;;18.38;43.67
38616;BME280;24370;51.986;4.666;2023-05-19T03:27:39;102749.38;;;17.88;44.94
38616;BME280;24370;51.986;4.666;2023-05-19T03:30:05;102749.22;;;18.08;44.20
38616;BME280;24370;51.986;4.666;2023-05-19T03:32:31;102745.72;;;18.03;44.48
38616;BME280;24370;51.986;4.666;2023-05-19T03:34:57;102747.75;;;17.76;44.30
38616;BME280;24370;51.986;4.666;2023-05-19T03:37:23;102739.66;;;17.95;44.42
38616;BME280;24370;51.986;4.666;2023-05-19T03:39:48;102745.91;;;17.85;44.26
38616;BME280;24370;51.986;4.666;2023-05-19T03:42:13;102737.56;;;18.23;43.45
38616;BME280;24370;51.986;4.666;2023-05-19T03:44:39;102742.97;;;18.14;43.52
38616;BME280;24370;51.986;4.666;2023-05-19T03:47:04;102741.31;;;18.02;44.01
38616;BME280;24370;51.986;4.666;2023-05-19T03:49:30;102740.34;;;18.12;43.40
38616;BME280;24370;51.986;4.666;2023-05-19T03:51:55;102747.31;;;18.20;42.94
38616;BME280;24370;51.986;4.666;2023-05-19T03:54:20;102749.44;;;17.84;43.89
38616;BME280;24370;51.986;4.666;2023-05-19T03:56:46;102748.50;;;17.89;43.78
38616;BME280;24370;51.986;4.666;2023-05-19T03:59:12;102753.97;;;17.68;44.52
38616;BME280;24370;51.986;4.666;2023-05-19T04:01:37;102751.94;;;17.99;43.11
38616;BME280;24370;51.986;4.666;2023-05-19T04:04:04;102752.91;;;17.92;43.57
38616;BME280;24370;51.986;4.666;2023-05-19T04:06:29;102760.84;;;17.90;44.50
38616;BME280;24370;51.986;4.666;2023-05-19T04:08:55;102762.91;;;17.54;44.77
38616;BME280;24370;51.986;4.666;2023-05-19T04:11:20;102751.97;;;17.96;43.65
38616;BME280;24370;51.986;4.666;2023-05-19T04:13:46;102771.75;;;17.50;45.36
38616;BME280;24370;51.986;4.666;2023-05-19T04:16:11;102770.84;;;17.56;45.11
38616;BME280;24370;51.986;4.666;2023-05-19T04:18:37;102766.31;;;17.70;44.45
38616;BME280;24370;51.986;4.666;2023-05-19T04:21:02;102768.78;;;17.86;44.62
38616;BME280;24370;51.986;4.666;2023-05-19T04:23:28;102767.81;;;16.89;46.22
38616;BME280;24370;51.986;4.666;2023-05-19T04:25:53;102772.53;;;17.63;45.10
38616;BME280;24370;51.986;4.666;2023-05-19T04:28:19;102770.53;;;17.93;44.30
38616;BME280;24370;51.986;4.666;2023-05-19T04:30:45;102772.97;;;18.11;43.75
38616;BME280;24370;51.986;4.666;2023-05-19T04:33:11;102771.34;;;18.01;43.96
38616;BME280;24370;51.986;4.666;2023-05-19T04:35:37;102770.47;;;17.99;44.16
38616;BME280;24370;51.986;4.666;2023-05-19T04:38:04;102773.88;;;18.10;44.91
38616;BME280;24370;51.986;4.666;2023-05-19T04:40:29;102771.72;;;18.46;44.24
38616;BME280;24370;51.986;4.666;2023-05-19T04:42:55;102773.59;;;19.04;42.56
38616;BME280;24370;51.986;4.666;2023-05-19T04:45:21;102774.78;;;19.95;41.49
38616;BME280;24370;51.986;4.666;2023-05-19T04:47:47;102771.22;;;19.43;41.97
38616;BME280;24370;51.986;4.666;2023-05-19T04:50:13;102771.06;;;20.04;41.29
38616;BME280;24370;51.986;4.666;2023-05-19T04:52:39;102773.63;;;20.08;40.58
38616;BME280;24370;51.986;4.666;2023-05-19T04:55:10;102771.22;;;20.40;39.75
38616;BME280;24370;51.986;4.666;2023-05-19T04:57:36;102773.25;;;19.81;41.13
38616;BME280;24370;51.986;4.666;2023-05-19T05:00:02;102764.25;;;19.36;41.74
38616;BME280;24370;51.986;4.666;2023-05-19T05:02:31;102770.44;;;19.36;42.00
38616;BME280;24370;51.986;4.666;2023-05-19T05:04:58;102776.34;;;20.05;40.65
38616;BME280;24370;51.986;4.666;2023-05-19T05:07:23;102771.56;;;19.21;42.59
38616;BME280;24370;51.986;4.666;2023-05-19T05:09:49;102775.00;;;19.82;41.01
38616;BME280;24370;51.986;4.666;2023-05-19T05:12:16;102783.41;;;18.97;42.98
38616;BME280;24370;51.986;4.666;2023-05-19T05:14:42;102782.13;;;19.77;41.52
38616;BME280;24370;51.986;4.666;2023-05-19T05:17:09;102780.16;;;19.36;42.15
38616;BME280;24370;51.986;4.666;2023-05-19T05:19:34;102785.03;;;19.07;42.45
38616;BME280;24370;51.986;4.666;2023-05-19T05:22:00;102791.81;;;19.81;41.04
38616;BME280;24370;51.986;4.666;2023-05-19T05:24:26;102790.56;;;19.49;41.75
38616;BME280;24370;51.986;4.666;2023-05-19T05:26:51;102788.16;;;19.34;41.51
38616;BME280;24370;51.986;4.666;2023-05-19T05:29:18;102790.59;;;18.89;42.95
38616;BME280;24370;51.986;4.666;2023-05-19T05:31:44;102780.88;;;19.47;41.92
38616;BME280;24370;51.986;4.666;2023-05-19T05:34:09;102782.25;;;19.15;43.14
38616;BME280;24370;51.986;4.666;2023-05-19T05:36:35;102792.84;;;19.71;41.70
38616;BME280;24370;51.986;4.666;2023-05-19T05:39:00;102792.56;;;19.90;41.14
38616;BME280;24370;51.986;4.666;2023-05-19T05:41:27;102798.94;;;19.76;41.03
38616;BME280;24370;51.986;4.666;2023-05-19T05:43:53;102786.34;;;19.38;42.02
38616;BME280;24370;51.986;4.666;2023-05-19T05:46:19;102789.44;;;19.63;41.86
38616;BME280;24370;51.986;4.666;2023-05-19T05:48:45;102793.63;;;20.28;40.65
38616;BME280;24370;51.986;4.666;2023-05-19T05:51:11;102782.63;;;19.49;42.72
38616;BME280;24370;51.986;4.666;2023-05-19T05:53:39;102785.81;;;19.14;42.83
38616;BME280;24370;51.986;4.666;2023-05-19T05:56:08;102792.03;;;20.17;41.21
38616;BME280;24370;51.986;4.666;2023-05-19T05:58:33;102786.88;;;20.08;41.20
38616;BME280;24370;51.986;4.666;2023-05-19T06:00:59;102786.78;;;19.10;42.42
38616;BME280;24370;51.986;4.666;2023-05-19T06:03:27;102786.13;;;20.03;40.90
38616;BME280;24370;51.986;4.666;2023-05-19T06:05:52;102773.78;;;20.87;39.92
38616;BME280;24370;51.986;4.666;2023-05-19T06:08:17;102777.44;;;20.40;40.97
38616;BME280;24370;51.986;4.666;2023-05-19T06:10:43;102783.09;;;20.22;40.83
38616;BME280;24370;51.986;4.666;2023-05-19T06:13:08;102777.09;;;20.56;40.10
38616;BME280;24370;51.986;4.666;2023-05-19T06:15:35;102783.09;;;19.19;42.26
38616;BME280;24370;51.986;4.666;2023-05-19T06:18:00;102776.78;;;20.71;39.91
38616;BME280;24370;51.986;4.666;2023-05-19T06:20:26;102780.84;;;21.27;38.50
38616;BME280;24370;51.986;4.666;2023-05-19T06:22:51;102784.59;;;21.56;38.33
38616;BME280;24370;51.986;4.666;2023-05-19T06:25:16;102785.06;;;20.98;38.77
38616;BME280;24370;51.986;4.666;2023-05-19T06:27:42;102781.41;;;22.09;36.97
38616;BME280;24370;51.986;4.666;2023-05-19T06:30:07;102782.81;;;24.17;34.01
38616;BME280;24370;51.986;4.666;2023-05-19T06:32:33;102774.66;;;24.92;32.97
38616;BME280;24370;51.986;4.666;2023-05-19T06:34:58;102772.97;;;25.95;30.78
38616;BME280;24370;51.986;4.666;2023-05-19T06:37:24;102781.06;;;27.46;29.51
38616;BME280;24370;51.986;4.666;2023-05-19T06:39:51;102775.41;;;26.60;28.60
38616;BME280;24370;51.986;4.666;2023-05-19T06:42:17;102778.75;;;28.08;28.04
38616;BME280;24370;51.986;4.666;2023-05-19T06:44:49;102782.44;;;28.23;27.60
38616;BME280;24370;51.986;4.666;2023-05-19T06:47:15;102780.31;;;28.78;27.19
38616;BME280;24370;51.986;4.666;2023-05-19T06:49:41;102787.50;;;28.61;26.92
38616;BME280;24370;51.986;4.666;2023-05-19T06:52:07;102788.63;;;28.08;27.46
38616;BME280;24370;51.986;4.666;2023-05-19T06:54:32;102777.75;;;29.23;26.17
38616;BME280;24370;51.986;4.666;2023-05-19T06:56:57;102776.06;;;28.74;26.38
38616;BME280;24370;51.986;4.666;2023-05-19T06:59:24;102780.94;;;28.67;25.96
38616;BME280;24370;51.986;4.666;2023-05-19T07:01:49;102786.31;;;28.18;27.23
38616;BME280;24370;51.986;4.666;2023-05-19T07:04:14;102782.97;;;27.44;28.32
38616;BME280;24370;51.986;4.666;2023-05-19T07:06:40;102784.53;;;27.31;27.20
38616;BME280;24370;51.986;4.666;2023-05-19T07:09:05;102790.00;;;27.10;27.88
38616;BME280;24370;51.986;4.666;2023-05-19T07:11:31;102788.97;;;26.76;27.62
38616;BME280;24370;51.986;4.666;2023-05-19T07:13:56;102790.69;;;26.39;29.13
38616;BME280;24370;51.986;4.666;2023-05-19T07:16:22;102796.72;;;23.75;32.09
38616;BME280;24370;51.986;4.666;2023-05-19T07:18:47;102791.31;;;25.20;30.39
38616;BME280;24370;51.986;4.666;2023-05-19T07:21:12;102783.97;;;24.81;31.85
38616;BME280;24370;51.986;4.666;2023-05-19T07:23:38;102798.56;;;24.49;32.42
38616;BME280;24370;51.986;4.666;2023-05-19T07:26:06;102785.72;;;24.59;31.40
38616;BME280;24370;51.986;4.666;2023-05-19T07:28:31;102789.84;;;24.91;30.61
38616;BME280;24370;51.986;4.666;2023-05-19T07:30:58;102781.75;;;25.99;30.51
38616;BME280;24370;51.986;4.666;2023-05-19T07:33:24;102789.75;;;26.40;29.77
38616;BME280;24370;51.986;4.666;2023-05-19T07:35:51;102783.81;;;26.90;29.67
38616;BME280;24370;51.986;4.666;2023-05-19T07:38:17;102775.91;;;28.77;26.52
38616;BME280;24370;51.986;4.666;2023-05-19T07:40:42;102774.88;;;28.64;26.24
38616;BME280;24370;51.986;4.666;2023-05-19T07:43:07;102775.06;;;29.53;25.83
38616;BME280;24370;51.986;4.666;2023-05-19T07:45:33;102773.94;;;29.11;25.80
38616;BME280;24370;51.986;4.666;2023-05-19T07:47:58;102767.47;;;30.05;23.83
38616;BME280;24370;51.986;4.666;2023-05-19T07:50:24;102770.53;;;29.99;24.91
38616;BME280;24370;51.986;4.666;2023-05-19T07:52:49;102771.25;;;29.27;24.97
38616;BME280;24370;51.986;4.666;2023-05-19T07:55:15;102769.22;;;30.62;24.64
38616;BME280;24370;51.986;4.666;2023-05-19T07:57:41;102754.59;;;31.21;23.66
38616;BME280;24370;51.986;4.666;2023-05-19T08:00:07;102762.63;;;32.25;21.31
38616;BME280;24370;51.986;4.666;2023-05-19T08:02:36;102762.34;;;32.04;21.46
38616;BME280;24370;51.986;4.666;2023-05-19T08:05:01;102762.63;;;32.00;22.73
38616;BME280;24370;51.986;4.666;2023-05-19T08:07:27;102761.78;;;31.73;22.14
38616;BME280;24370;51.986;4.666;2023-05-19T08:09:52;102759.41;;;32.20;21.24
38616;BME280;24370;51.986;4.666;2023-05-19T08:12:17;102755.25;;;34.29;19.58
38616;BME280;24370;51.986;4.666;2023-05-19T08:14:43;102753.28;;;35.50;18.65
38616;BME280;24370;51.986;4.666;2023-05-19T08:17:08;102757.19;;;35.15;19.86
38616;BME280;24370;51.986;4.666;2023-05-19T08:19:33;102755.16;;;32.90;20.22
38616;BME280;24370;51.986;4.666;2023-05-19T08:21:59;102748.03;;;34.40;19.92
38616;BME280;24370;51.986;4.666;2023-05-19T08:24:26;102743.75;;;33.92;19.79
38616;BME280;24370;51.986;4.666;2023-05-19T08:26:53;102740.34;;;35.00;18.83
38616;BME280;24370;51.986;4.666;2023-05-19T08:29:19;102736.88;;;34.65;19.49
38616;BME280;24370;51.986;4.666;2023-05-19T08:31:44;102743.84;;;32.85;19.25
38616;BME280;24370;51.986;4.666;2023-05-19T08:34:10;102743.28;;;33.40;19.45
38616;BME280;24370;51.986;4.666;2023-05-19T08:36:35;102729.22;;;34.71;18.12
38616;BME280;24370;51.986;4.666;2023-05-19T08:39:00;102740.13;;;33.57;19.56
38616;BME280;24370;51.986;4.666;2023-05-19T08:41:26;102723.06;;;35.22;17.50
38616;BME280;24370;51.986;4.666;2023-05-19T08:43:52;102727.09;;;33.51;19.78
38616;BME280;24370;51.986;4.666;2023-05-19T08:46:19;102724.81;;;34.91;19.73
38616;BME280;24370;51.986;4.666;2023-05-19T08:48:46;102725.34;;;37.39;16.48
38616;BME280;24370;51.986;4.666;2023-05-19T08:54:00;102729.47;;;35.32;18.35
38616;BME280;24370;51.986;4.666;2023-05-19T08:56:32;102727.13;;;36.11;17.52
38616;BME280;24370;51.986;4.666;2023-05-19T08:58:58;102725.09;;;35.51;17.31
38616;BME280;24370;51.986;4.666;2023-05-19T09:01:24;102720.31;;;36.46;16.16
38616;BME280;24370;51.986;4.666;2023-05-19T09:03:52;102722.81;;;34.60;17.34
38616;BME280;24370;51.986;4.666;2023-05-19T09:06:18;102718.94;;;32.06;19.29
38616;BME280;24370;51.986;4.666;2023-05-19T09:08:44;102724.94;;;32.96;19.70
38616;BME280;24370;51.986;4.666;2023-05-19T09:11:11;102721.13;;;33.35;19.43
38616;BME280;24370;51.986;4.666;2023-05-19T09:13:37;102727.31;;;34.50;18.12
38616;BME280;24370;51.986;4.666;2023-05-19T09:16:02;102722.56;;;34.63;18.49
38616;BME280;24370;51.986;4.666;2023-05-19T09:18:28;102721.16;;;34.80;17.99
38616;BME280;24370;51.986;4.666;2023-05-19T09:20:58;102721.34;;;34.56;17.92
38616;BME280;24370;51.986;4.666;2023-05-19T09:23:27;102711.66;;;35.07;16.97
38616;BME280;24370;51.986;4.666;2023-05-19T09:25:54;102708.00;;;37.67;15.64
38616;BME280;24370;51.986;4.666;2023-05-19T09:28:27;102719.00;;;36.30;16.39
38616;BME280;24370;51.986;4.666;2023-05-19T09:31:08;102707.28;;;37.18;15.63
38616;BME280;24370;51.986;4.666;2023-05-19T09:33:35;102717.44;;;34.81;17.74
38616;BME280;24370;51.986;4.666;2023-05-19T09:36:01;102725.34;;;33.39;17.27
38616;BME280;24370;51.986;4.666;2023-05-19T09:38:29;102713.06;;;34.03;16.93
38616;BME280;24370;51.986;4.666;2023-05-19T09:40:56;102715.66;;;34.59;17.15
38616;BME280;24370;51.986;4.666;2023-05-19T09:43:22;102715.28;;;32.68;17.94
38616;BME280;24370;51.986;4.666;2023-05-19T09:45:48;102718.09;;;32.18;19.42
38616;BME280;24370;51.986;4.666;2023-05-19T09:48:17;102718.16;;;34.51;17.10
38616;BME280;24370;51.986;4.666;2023-05-19T09:50:43;102720.09;;;35.46;16.85
38616;BME280;24370;51.986;4.666;2023-05-19T09:53:12;102717.75;;;34.99;16.53
38616;BME280;24370;51.986;4.666;2023-05-19T09:55:38;102703.81;;;34.60;17.07
38616;BME280;24370;51.986;4.666;2023-05-19T09:58:05;102699.59;;;35.21;16.74
38616;BME280;24370;51.986;4.666;2023-05-19T10:00:31;102706.31;;;33.27;16.68
38616;BME280;24370;51.986;4.666;2023-05-19T10:02:58;102695.75;;;35.03;16.20
38616;BME280;24370;51.986;4.666;2023-05-19T10:05:25;102709.44;;;35.95;15.71
38616;BME280;24370;51.986;4.666;2023-05-19T10:07:53;102694.13;;;35.94;16.66
38616;BME280;24370;51.986;4.666;2023-05-19T10:10:20;102695.69;;;35.14;15.12
38616;BME280;24370;51.986;4.666;2023-05-19T10:12:47;102695.16;;;35.20;16.75
38616;BME280;24370;51.986;4.666;2023-05-19T10:15:14;102695.84;;;36.95;14.64
38616;BME280;24370;51.986;4.666;2023-05-19T10:17:42;102701.63;;;35.81;15.20
38616;BME280;24370;51.986;4.666;2023-05-19T10:20:13;102692.75;;;35.27;15.74
38616;BME280;24370;51.986;4.666;2023-05-19T10:22:39;102687.81;;;34.78;16.43
38616;BME280;24370;51.986;4.666;2023-05-19T10:25:05;102686.16;;;34.98;15.94
38616;BME280;24370;51.986;4.666;2023-05-19T10:27:34;102686.47;;;34.40;15.82
38616;BME280;24370;51.986;4.666;2023-05-19T10:30:09;102693.84;;;33.94;16.56
38616;BME280;24370;51.986;4.666;2023-05-19T10:32:38;102687.66;;;33.81;17.70
38616;BME280;24370;51.986;4.666;2023-05-19T10:45:50;102680.38;;;31.26;20.56
38616;BME280;24370;51.986;4.666;2023-05-19T10:48:18;102673.78;;;31.56;20.35
38616;BME280;24370;51.986;4.666;2023-05-19T10:50:45;102674.88;;;31.67;19.39
38616;BME280;24370;51.986;4.666;2023-05-19T10:53:15;102676.81;;;31.77;18.24
38616;BME280;24370;51.986;4.666;2023-05-19T10:55:52;102677.41;;;33.28;17.77
38616;BME280;24370;51.986;4.666;2023-05-19T11:01:30;102666.84;;;33.01;17.76
38616;BME280;24370;51.986;4.666;2023-05-19T11:03:55;102669.03;;;32.95;17.49
38616;BME280;24370;51.986;4.666;2023-05-19T11:06:26;102654.06;;;35.65;17.18
38616;BME280;24370;51.986;4.666;2023-05-19T11:11:51;102653.00;;;34.51;16.08
38616;BME280;24370;51.986;4.666;2023-05-19T11:14:26;102654.53;;;32.96;18.21
38616;BME280;24370;51.986;4.666;2023-05-19T11:16:55;102662.16;;;33.72;16.61
38616;BME280;24370;51.986;4.666;2023-05-19T11:19:32;102663.75;;;34.09;16.05
38616;BME280;24370;51.986;4.666;2023-05-19T11:22:09;102675.91;;;31.00;19.81
38616;BME280;24370;51.986;4.666;2023-05-19T11:24:45;102672.91;;;31.94;19.75
38616;BME280;24370;51.986;4.666;2023-05-19T11:27:17;102670.09;;;31.06;19.26
38616;BME280;24370;51.986;4.666;2023-05-19T11:29:43;102663.22;;;30.33;19.36
38616;BME280;24370;51.986;4.666;2023-05-19T11:32:10;102664.81;;;29.65;21.05
38616;BME280;24370;51.986;4.666;2023-05-19T11:34:36;102660.28;;;30.23;20.29
38616;BME280;24370;51.986;4.666;2023-05-19T11:37:06;102658.03;;;29.14;20.74
38616;BME280;24370;51.986;4.666;2023-05-19T11:39:32;102649.50;;;30.08;19.85
38616;BME280;24370;51.986;4.666;2023-05-19T11:41:58;102649.59;;;30.76;19.27
38616;BME280;24370;51.986;4.666;2023-05-19T11:44:23;102647.50;;;30.12;19.68
38616;BME280;24370;51.986;4.666;2023-05-19T11:46:49;102657.53;;;29.95;20.26
38616;BME280;24370;51.986;4.666;2023-05-19T11:49:14;102651.28;;;30.37;20.13
38616;BME280;24370;51.986;4.666;2023-05-19T11:51:44;102654.59;;;28.34;21.64
38616;BME280;24370;51.986;4.666;2023-05-19T11:54:12;102657.06;;;30.31;20.17
38616;BME280;24370;51.986;4.666;2023-05-19T11:56:41;102650.16;;;31.97;18.28
38616;BME280;24370;51.986;4.666;2023-05-19T11:59:07;102636.91;;;32.67;17.84
38616;BME280;24370;51.986;4.666;2023-05-19T12:01:33;102646.78;;;31.30;19.90
38616;BME280;24370;51.986;4.666;2023-05-19T12:03:59;102643.16;;;30.91;18.72
38616;BME280;24370;51.986;4.666;2023-05-19T12:06:25;102637.03;;;32.89;17.38
38616;BME280;24370;51.986;4.666;2023-05-19T12:08:53;102640.84;;;32.62;17.62
38616;BME280;24370;51.986;4.666;2023-05-19T12:11:18;102639.09;;;32.13;18.16
38616;BME280;24370;51.986;4.666;2023-05-19T12:13:44;102621.88;;;32.51;17.40
38616;BME280;24370;51.986;4.666;2023-05-19T12:16:11;102634.34;;;31.15;19.13
38616;BME280;24370;51.986;4.666;2023-05-19T12:18:36;102628.81;;;30.63;19.99
38616;BME280;24370;51.986;4.666;2023-05-19T12:21:06;102616.69;;;30.96;19.36
38616;BME280;24370;51.986;4.666;2023-05-19T12:23:32;102618.47;;;30.43;20.14
38616;BME280;24370;51.986;4.666;2023-05-19T12:25:58;102616.75;;;31.22;19.87
38616;BME280;24370;51.986;4.666;2023-05-19T12:28:25;102627.00;;;29.95;20.57
38616;BME280;24370;51.986;4.666;2023-05-19T12:30:50;102621.38;;;30.54;20.41
38616;BME280;24370;51.986;4.666;2023-05-19T12:33:20;102617.06;;;31.30;20.50
38616;BME280;24370;51.986;4.666;2023-05-19T12:35:47;102612.78;;;30.75;20.84
38616;BME280;24370;51.986;4.666;2023-05-19T12:38:14;102609.28;;;32.39;19.50
38616;BME280;24370;51.986;4.666;2023-05-19T12:40:41;102602.94;;;31.90;19.94
38616;BME280;24370;51.986;4.666;2023-05-19T12:43:06;102600.78;;;31.19;19.83
38616;BME280;24370;51.986;4.666;2023-05-19T12:45:38;102617.06;;;29.23;21.43
38616;BME280;24370;51.986;4.666;2023-05-19T12:48:10;102608.84;;;30.26;21.48
38616;BME280;24370;51.986;4.666;2023-05-19T12:50:36;102603.84;;;29.92;21.94
38616;BME280;24370;51.986;4.666;2023-05-19T12:53:02;102612.84;;;30.33;21.73
38616;BME280;24370;51.986;4.666;2023-05-19T12:55:28;102609.81;;;31.44;20.14
38616;BME280;24370;51.986;4.666;2023-05-19T12:57:53;102603.13;;;31.37;19.47
38616;BME280;24370;51.986;4.666;2023-05-19T13:00:23;102590.09;;;31.80;19.18
38616;BME280;24370;51.986;4.666;2023-05-19T13:05:26;102599.25;;;30.35;21.35
38616;BME280;24370;51.986;4.666;2023-05-19T13:08:08;102598.34;;;30.89;20.24
38616;BME280;24370;51.986;4.666;2023-05-19T13:10:35;102598.78;;;31.47;20.23
38616;BME280;24370;51.986;4.666;2023-05-19T13:13:02;102596.44;;;31.04;19.72
38616;BME280;24370;51.986;4.666;2023-05-19T13:15:29;102592.97;;;31.40;19.59
38616;BME280;24370;51.986;4.666;2023-05-19T13:17:59;102599.53;;;30.44;22.18
38616;BME280;24370;51.986;4.666;2023-05-19T13:20:25;102594.03;;;28.58;21.50
38616;BME280;24370;51.986;4.666;2023-05-19T13:22:51;102589.72;;;30.16;21.28